sensor_id;sensor_type;location;lat;lon;timestamp;P1;durP1;ratioP1;P2;durP2;ratioP2
15061;SDS011;7630;50.306;8.566;2023-08-20T00:03:13;12.73;;;11.63;;
15061;SDS011;7630;50.306;8.566;2023-08-20T00:07:12;12.47;;;11.57;;
15061;SDS011;7630;50.306;8.566;2023-08-20T00:11:13;12.47;;;11.37;;
15061;SDS011;7630;50.306;8.566;2023-08-20T00:15:15;12.70;;;10.93;;
15061;SDS011;7630;50.306;8.566;2023-08-20T00:19:25;14.30;;;12.87;;
15061;SDS011;7630;50.306;8.566;2023-08-20T00:23:27;12.03;;;10.93;;
15061;SDS011;7630;50.306;8.566;2023-08-20T00:27:28;12.60;;;11.50;;
15061;SDS011;7630;50.306;8.566;2023-08-20T00:31:29;10.93;;;10.10;;
15061;SDS011;7630;50.306;8.566;2023-08-20T00:35:31;12.60;;;11.37;;
15061;SDS011;7630;50.306;8.566;2023-08-20T00:39:32;12.33;;;10.97;;
15061;SDS011;7630;50.306;8.566;2023-08-20T00:43:34;10.60;;;9.80;;
15061;SDS011;7630;50.306;8.566;2023-08-20T00:47:35;13.10;;;10.90;;
15061;SDS011;7630;50.306;8.566;2023-08-20T00:51:37;12.23;;;11.10;;
15061;SDS011;7630;50.306;8.566;2023-08-20T00:55:39;10.70;;;9.80;;
15061;SDS011;7630;50.306;8.566;2023-08-20T00:59:40;14.13;;;11.30;;
15061;SDS011;7630;50.306;8.566;2023-08-20T01:03:42;12.23;;;10.80;;
15061;SDS011;7630;50.306;8.566;2023-08-20T01:07:48;11.23;;;10.30;;
15061;SDS011;7630;50.306;8.566;2023-08-20T01:11:53;11.13;;;10.17;;
15061;SDS011;7630;50.306;8.566;2023-08-20T01:15:56;10.70;;;9.80;;
15061;SDS011;7630;50.306;8.566;2023-08-20T01:19:57;11.90;;;10.90;;
15061;SDS011;7630;50.306;8.566;2023-08-20T01:28:30;13.83;;;11.23;;
15061;SDS011;7630;50.306;8.566;2023-08-20T01:32:32;11.80;;;10.80;;
15061;SDS011;7630;50.306;8.566;2023-08-20T01:36:34;12.83;;;11.83;;
15061;SDS011;7630;50.306;8.566;2023-08-20T01:40:35;13.20;;;11.90;;
15061;SDS011;7630;50.306;8.566;2023-08-20T01:44:36;12.63;;;11.57;;
15061;SDS011;7630;50.306;8.566;2023-08-20T01:48:38;13.20;;;12.03;;
15061;SDS011;7630;50.306;8.566;2023-08-20T01:52:39;13.13;;;12.13;;
15061;SDS011;7630;50.306;8.566;2023-08-20T01:56:40;12.63;;;11.63;;
15061;SDS011;7630;50.306;8.566;2023-08-20T02:00:41;12.63;;;11.70;;
15061;SDS011;7630;50.306;8.566;2023-08-20T02:04:42;12.20;;;11.00;;
15061;SDS011;7630;50.306;8.566;2023-08-20T02:08:43;11.13;;;10.00;;
15061;SDS011;7630;50.306;8.566;2023-08-20T02:12:44;11.50;;;10.23;;
15061;SDS011;7630;50.306;8.566;2023-08-20T02:16:46;11.53;;;10.50;;
15061;SDS011;7630;50.306;8.566;2023-08-20T02:20:48;12.73;;;11.53;;
15061;SDS011;7630;50.306;8.566;2023-08-20T02:24:49;13.40;;;12.10;;
15061;SDS011;7630;50.306;8.566;2023-08-20T02:28:51;13.57;;;12.30;;
15061;SDS011;7630;50.306;8.566;2023-08-20T02:32:52;13.93;;;11.83;;
15061;SDS011;7630;50.306;8.566;2023-08-20T02:36:53;12.70;;;11.57;;
15061;SDS011;7630;50.306;8.566;2023-08-20T02:40:54;11.23;;;10.23;;
15061;SDS011;7630;50.306;8.566;2023-08-20T02:44:55;11.87;;;10.87;;
15061;SDS011;7630;50.306;8.566;2023-08-20T02:48:56;12.23;;;10.00;;
15061;SDS011;7630;50.306;8.566;2023-08-20T02:52:57;10.63;;;9.73;;
15061;SDS011;7630;50.306;8.566;2023-08-20T02:56:59;24.57;;;13.13;;
15061;SDS011;7630;50.306;8.566;2023-08-20T03:01:00;14.40;;;13.10;;
15061;SDS011;7630;50.306;8.566;2023-08-20T03:05:01;13.23;;;12.10;;
15061;SDS011;7630;50.306;8.566;2023-08-20T03:09:02;14.23;;;12.87;;
15061;SDS011;7630;50.306;8.566;2023-08-20T03:13:05;13.37;;;11.33;;
15061;SDS011;7630;50.306;8.566;2023-08-20T03:17:06;12.33;;;11.13;;
15061;SDS011;7630;50.306;8.566;2023-08-20T03:21:07;11.80;;;10.70;;
15061;SDS011;7630;50.306;8.566;2023-08-20T03:25:08;13.93;;;12.37;;
15061;SDS011;7630;50.306;8.566;2023-08-20T03:29:09;10.93;;;9.83;;
15061;SDS011;7630;50.306;8.566;2023-08-20T03:33:10;14.77;;;13.37;;
15061;SDS011;7630;50.306;8.566;2023-08-20T03:37:11;14.20;;;13.07;;
15061;SDS011;7630;50.306;8.566;2023-08-20T03:41:13;15.67;;;14.27;;
15061;SDS011;7630;50.306;8.566;2023-08-20T03:45:15;14.70;;;13.40;;
15061;SDS011;7630;50.306;8.566;2023-08-20T03:49:16;17.03;;;15.63;;
15061;SDS011;7630;50.306;8.566;2023-08-20T03:53:17;16.03;;;14.50;;
15061;SDS011;7630;50.306;8.566;2023-08-20T03:57:18;15.67;;;14.20;;
15061;SDS011;7630;50.306;8.566;2023-08-20T04:01:19;14.97;;;13.57;;
15061;SDS011;7630;50.306;8.566;2023-08-20T04:05:21;13.50;;;12.07;;
15061;SDS011;7630;50.306;8.566;2023-08-20T04:09:22;12.57;;;11.60;;
15061;SDS011;7630;50.306;8.566;2023-08-20T04:13:23;14.47;;;13.17;;
15061;SDS011;7630;50.306;8.566;2023-08-20T04:17:24;13.13;;;12.13;;
15061;SDS011;7630;50.306;8.566;2023-08-20T04:21:25;14.00;;;12.90;;
15061;SDS011;7630;50.306;8.566;2023-08-20T04:25:27;13.47;;;11.93;;
15061;SDS011;7630;50.306;8.566;2023-08-20T04:29:28;13.37;;;12.03;;
15061;SDS011;7630;50.306;8.566;2023-08-20T04:33:29;15.10;;;13.60;;
15061;SDS011;7630;50.306;8.566;2023-08-20T04:37:30;11.53;;;10.63;;
15061;SDS011;7630;50.306;8.566;2023-08-20T04:41:31;13.00;;;11.97;;
15061;SDS011;7630;50.306;8.566;2023-08-20T04:45:33;11.63;;;10.77;;
15061;SDS011;7630;50.306;8.566;2023-08-20T04:49:34;12.10;;;11.20;;
15061;SDS011;7630;50.306;8.566;2023-08-20T04:53:35;12.27;;;11.07;;
15061;SDS011;7630;50.306;8.566;2023-08-20T04:57:36;12.80;;;11.70;;
15061;SDS011;7630;50.306;8.566;2023-08-20T05:01:38;12.03;;;11.13;;
15061;SDS011;7630;50.306;8.566;2023-08-20T05:05:39;12.20;;;11.10;;
15061;SDS011;7630;50.306;8.566;2023-08-20T05:09:40;11.03;;;10.00;;
15061;SDS011;7630;50.306;8.566;2023-08-20T05:13:44;12.47;;;11.17;;
15061;SDS011;7630;50.306;8.566;2023-08-20T05:17:46;10.73;;;9.67;;
15061;SDS011;7630;50.306;8.566;2023-08-20T05:21:47;11.93;;;10.93;;
15061;SDS011;7630;50.306;8.566;2023-08-20T05:25:48;11.03;;;10.07;;
15061;SDS011;7630;50.306;8.566;2023-08-20T05:29:49;11.20;;;10.10;;
15061;SDS011;7630;50.306;8.566;2023-08-20T05:33:50;11.27;;;10.07;;
15061;SDS011;7630;50.306;8.566;2023-08-20T05:37:52;11.03;;;10.13;;
15061;SDS011;7630;50.306;8.566;2023-08-20T05:41:57;9.23;;;8.40;;
15061;SDS011;7630;50.306;8.566;2023-08-20T05:45:56;9.90;;;9.00;;
15061;SDS011;7630;50.306;8.566;2023-08-20T05:49:57;10.23;;;9.33;;
15061;SDS011;7630;50.306;8.566;2023-08-20T05:53:58;10.20;;;9.33;;
15061;SDS011;7630;50.306;8.566;2023-08-20T05:57:59;9.03;;;8.27;;
15061;SDS011;7630;50.306;8.566;2023-08-20T06:02:01;14.93;;;10.47;;
15061;SDS011;7630;50.306;8.566;2023-08-20T06:06:02;12.20;;;11.10;;
15061;SDS011;7630;50.306;8.566;2023-08-20T06:10:06;13.43;;;12.07;;
15061;SDS011;7630;50.306;8.566;2023-08-20T06:14:08;14.97;;;13.67;;
15061;SDS011;7630;50.306;8.566;2023-08-20T06:18:09;14.30;;;13.10;;
15061;SDS011;7630;50.306;8.566;2023-08-20T06:22:10;16.17;;;14.77;;
15061;SDS011;7630;50.306;8.566;2023-08-20T06:26:11;14.83;;;13.43;;
15061;SDS011;7630;50.306;8.566;2023-08-20T06:30:13;16.90;;;15.40;;
15061;SDS011;7630;50.306;8.566;2023-08-20T06:34:14;16.00;;;14.67;;
15061;SDS011;7630;50.306;8.566;2023-08-20T06:38:15;16.27;;;14.87;;
15061;SDS011;7630;50.306;8.566;2023-08-20T06:42:17;17.63;;;16.23;;
15061;SDS011;7630;50.306;8.566;2023-08-20T06:46:18;17.53;;;16.13;;
15061;SDS011;7630;50.306;8.566;2023-08-20T06:50:19;16.07;;;14.87;;
15061;SDS011;7630;50.306;8.566;2023-08-20T06:54:21;16.37;;;14.97;;
15061;SDS011;7630;50.306;8.566;2023-08-20T06:58:23;16.27;;;15.00;;
15061;SDS011;7630;50.306;8.566;2023-08-20T07:02:24;17.00;;;15.63;;
15061;SDS011;7630;50.306;8.566;2023-08-20T07:06:25;16.87;;;15.37;;
15061;SDS011;7630;50.306;8.566;2023-08-20T07:10:26;21.00;;;15.70;;
15061;SDS011;7630;50.306;8.566;2023-08-20T07:14:27;16.50;;;14.90;;
15061;SDS011;7630;50.306;8.566;2023-08-20T07:18:29;18.53;;;17.13;;
15061;SDS011;7630;50.306;8.566;2023-08-20T07:22:30;17.20;;;15.63;;
15061;SDS011;7630;50.306;8.566;2023-08-20T07:26:31;17.33;;;15.83;;
15061;SDS011;7630;50.306;8.566;2023-08-20T07:30:32;18.03;;;16.17;;
15061;SDS011;7630;50.306;8.566;2023-08-20T07:34:34;19.10;;;17.40;;
15061;SDS011;7630;50.306;8.566;2023-08-20T07:38:35;19.53;;;17.70;;
15061;SDS011;7630;50.306;8.566;2023-08-20T07:42:40;19.30;;;17.60;;
15061;SDS011;7630;50.306;8.566;2023-08-20T07:46:41;21.43;;;19.47;;
15061;SDS011;7630;50.306;8.566;2023-08-20T07:50:42;22.43;;;20.33;;
15061;SDS011;7630;50.306;8.566;2023-08-20T07:54:43;20.00;;;18.37;;
15061;SDS011;7630;50.306;8.566;2023-08-20T07:58:45;19.67;;;17.90;;
15061;SDS011;7630;50.306;8.566;2023-08-20T08:02:46;22.07;;;20.13;;
15061;SDS011;7630;50.306;8.566;2023-08-20T08:06:47;22.57;;;20.67;;
15061;SDS011;7630;50.306;8.566;2023-08-20T08:10:48;19.53;;;17.73;;
15061;SDS011;7630;50.306;8.566;2023-08-20T08:14:50;19.70;;;17.83;;
15061;SDS011;7630;50.306;8.566;2023-08-20T08:18:51;22.83;;;20.53;;
15061;SDS011;7630;50.306;8.566;2023-08-20T08:22:52;22.83;;;20.83;;
15061;SDS011;7630;50.306;8.566;2023-08-20T08:26:53;21.67;;;19.83;;
15061;SDS011;7630;50.306;8.566;2023-08-20T08:30:55;26.50;;;23.90;;
15061;SDS011;7630;50.306;8.566;2023-08-20T08:34:56;26.47;;;24.27;;
15061;SDS011;7630;50.306;8.566;2023-08-20T08:38:57;25.70;;;23.33;;
15061;SDS011;7630;50.306;8.566;2023-08-20T08:42:59;25.00;;;22.73;;
15061;SDS011;7630;50.306;8.566;2023-08-20T08:47:01;23.93;;;21.93;;
15061;SDS011;7630;50.306;8.566;2023-08-20T08:51:03;23.60;;;21.37;;
15061;SDS011;7630;50.306;8.566;2023-08-20T08:55:05;22.10;;;20.20;;
15061;SDS011;7630;50.306;8.566;2023-08-20T08:59:08;21.60;;;19.67;;
15061;SDS011;7630;50.306;8.566;2023-08-20T09:03:10;18.70;;;17.03;;
15061;SDS011;7630;50.306;8.566;2023-08-20T09:07:15;20.67;;;18.90;;
15061;SDS011;7630;50.306;8.566;2023-08-20T09:11:15;19.20;;;17.40;;
15061;SDS011;7630;50.306;8.566;2023-08-20T09:15:16;19.53;;;17.97;;
15061;SDS011;7630;50.306;8.566;2023-08-20T09:19:17;19.50;;;17.70;;
15061;SDS011;7630;50.306;8.566;2023-08-20T09:23:18;18.60;;;16.90;;
15061;SDS011;7630;50.306;8.566;2023-08-20T09:27:19;16.13;;;14.87;;
15061;SDS011;7630;50.306;8.566;2023-08-20T09:31:20;18.60;;;17.10;;
15061;SDS011;7630;50.306;8.566;2023-08-20T09:35:26;17.93;;;16.10;;
15061;SDS011;7630;50.306;8.566;2023-08-20T09:39:27;17.67;;;16.23;;
15061;SDS011;7630;50.306;8.566;2023-08-20T09:43:28;15.23;;;13.93;;
15061;SDS011;7630;50.306;8.566;2023-08-20T09:47:32;15.53;;;14.20;;
15061;SDS011;7630;50.306;8.566;2023-08-20T09:51:37;13.00;;;12.00;;
15061;SDS011;7630;50.306;8.566;2023-08-20T09:55:40;12.27;;;11.17;;
15061;SDS011;7630;50.306;8.566;2023-08-20T09:59:42;14.10;;;12.90;;
15061;SDS011;7630;50.306;8.566;2023-08-20T10:03:45;12.93;;;11.93;;
15061;SDS011;7630;50.306;8.566;2023-08-20T10:07:47;13.27;;;12.07;;
15061;SDS011;7630;50.306;8.566;2023-08-20T10:11:49;14.50;;;13.20;;
15061;SDS011;7630;50.306;8.566;2023-08-20T10:15:51;13.70;;;12.20;;
15061;SDS011;7630;50.306;8.566;2023-08-20T10:19:52;11.40;;;10.50;;
15061;SDS011;7630;50.306;8.566;2023-08-20T10:23:54;12.70;;;11.60;;
15061;SDS011;7630;50.306;8.566;2023-08-20T10:28:12;11.10;;;10.10;;
15061;SDS011;7630;50.306;8.566;2023-08-20T10:32:17;11.90;;;11.00;;
15061;SDS011;7630;50.306;8.566;2023-08-20T10:36:19;10.47;;;9.67;;
15061;SDS011;7630;50.306;8.566;2023-08-20T10:45:04;10.23;;;9.33;;
15061;SDS011;7630;50.306;8.566;2023-08-20T10:49:10;11.57;;;9.43;;
15061;SDS011;7630;50.306;8.566;2023-08-20T10:53:15;10.77;;;9.83;;
15061;SDS011;7630;50.306;8.566;2023-08-20T10:57:16;9.77;;;8.87;;
15061;SDS011;7630;50.306;8.566;2023-08-20T11:01:21;10.93;;;10.03;;
15061;SDS011;7630;50.306;8.566;2023-08-20T11:05:23;10.17;;;9.40;;
15061;SDS011;7630;50.306;8.566;2023-08-20T11:09:30;9.13;;;8.23;;
15061;SDS011;7630;50.306;8.566;2023-08-20T11:13:32;11.20;;;10.30;;
15061;SDS011;7630;50.306;8.566;2023-08-20T11:17:34;9.13;;;8.33;;
15061;SDS011;7630;50.306;8.566;2023-08-20T11:21:36;9.77;;;8.80;;
15061;SDS011;7630;50.306;8.566;2023-08-20T11:25:42;9.17;;;8.47;;
15061;SDS011;7630;50.306;8.566;2023-08-20T11:29:44;8.50;;;7.70;;
15061;SDS011;7630;50.306;8.566;2023-08-20T11:33:45;7.80;;;7.07;;
15061;SDS011;7630;50.306;8.566;2023-08-20T11:37:48;8.60;;;7.80;;
15061;SDS011;7630;50.306;8.566;2023-08-20T11:41:49;7.20;;;6.77;;
15061;SDS011;7630;50.306;8.566;2023-08-20T11:45:51;9.13;;;8.33;;
15061;SDS011;7630;50.306;8.566;2023-08-20T11:50:02;8.33;;;7.57;;
15061;SDS011;7630;50.306;8.566;2023-08-20T11:54:05;8.63;;;7.73;;
15061;SDS011;7630;50.306;8.566;2023-08-20T11:58:11;7.60;;;7.00;;
15061;SDS011;7630;50.306;8.566;2023-08-20T12:02:13;8.03;;;7.43;;
15061;SDS011;7630;50.306;8.566;2023-08-20T12:06:20;7.37;;;6.67;;
15061;SDS011;7630;50.306;8.566;2023-08-20T12:10:23;8.10;;;7.40;;
15061;SDS011;7630;50.306;8.566;2023-08-20T12:14:25;7.10;;;6.60;;
15061;SDS011;7630;50.306;8.566;2023-08-20T12:18:26;8.30;;;7.37;;
15061;SDS011;7630;50.306;8.566;2023-08-20T12:22:27;7.43;;;6.83;;
15061;SDS011;7630;50.306;8.566;2023-08-20T12:26:28;8.57;;;7.77;;
15061;SDS011;7630;50.306;8.566;2023-08-20T12:30:30;8.43;;;7.67;;
15061;SDS011;7630;50.306;8.566;2023-08-20T12:34:32;8.13;;;7.40;;
15061;SDS011;7630;50.306;8.566;2023-08-20T12:38:33;8.33;;;7.43;;
15061;SDS011;7630;50.306;8.566;2023-08-20T12:42:35;7.60;;;7.00;;
15061;SDS011;7630;50.306;8.566;2023-08-20T12:46:36;9.73;;;8.83;;
15061;SDS011;7630;50.306;8.566;2023-08-20T12:50:37;8.77;;;7.90;;
15061;SDS011;7630;50.306;8.566;2023-08-20T12:54:38;8.00;;;7.30;;
15061;SDS011;7630;50.306;8.566;2023-08-20T12:58:40;8.27;;;7.60;;
15061;SDS011;7630;50.306;8.566;2023-08-20T13:02:41;8.58;;;7.87;;
15061;SDS011;7630;50.306;8.566;2023-08-20T13:06:43;7.30;;;6.50;;
15061;SDS011;7630;50.306;8.566;2023-08-20T13:10:48;7.17;;;6.47;;
15061;SDS011;7630;50.306;8.566;2023-08-20T13:14:57;8.25;;;7.55;;
15061;SDS011;7630;50.306;8.566;2023-08-20T13:18:58;9.08;;;8.33;;
15061;SDS011;7630;50.306;8.566;2023-08-20T13:23:00;7.90;;;7.40;;
15061;SDS011;7630;50.306;8.566;2023-08-20T13:27:01;9.17;;;8.23;;
15061;SDS011;7630;50.306;8.566;2023-08-20T13:31:02;8.17;;;7.47;;
15061;SDS011;7630;50.306;8.566;2023-08-20T13:35:04;9.63;;;8.07;;
15061;SDS011;7630;50.306;8.566;2023-08-20T13:39:06;9.47;;;7.23;;
15061;SDS011;7630;50.306;8.566;2023-08-20T13:43:07;8.07;;;7.47;;
15061;SDS011;7630;50.306;8.566;2023-08-20T13:47:10;8.77;;;6.13;;
15061;SDS011;7630;50.306;8.566;2023-08-20T13:51:11;6.50;;;6.00;;
15061;SDS011;7630;50.306;8.566;2023-08-20T13:55:12;8.25;;;5.85;;
15061;SDS011;7630;50.306;8.566;2023-08-20T13:59:14;6.80;;;6.22;;
15061;SDS011;7630;50.306;8.566;2023-08-20T14:03:15;6.28;;;5.80;;
15061;SDS011;7630;50.306;8.566;2023-08-20T14:07:17;7.17;;;6.57;;
15061;SDS011;7630;50.306;8.566;2023-08-20T14:11:19;10.23;;;9.43;;
15061;SDS011;7630;50.306;8.566;2023-08-20T14:15:20;9.70;;;8.90;;
15061;SDS011;7630;50.306;8.566;2023-08-20T14:19:21;10.70;;;8.73;;
15061;SDS011;7630;50.306;8.566;2023-08-20T14:23:22;8.73;;;8.03;;
15061;SDS011;7630;50.306;8.566;2023-08-20T14:27:24;10.50;;;9.60;;
15061;SDS011;7630;50.306;8.566;2023-08-20T14:31:25;6.00;;;5.50;;
15061;SDS011;7630;50.306;8.566;2023-08-20T14:35:26;7.10;;;5.83;;
15061;SDS011;7630;50.306;8.566;2023-08-20T14:39:28;6.90;;;6.33;;
15061;SDS011;7630;50.306;8.566;2023-08-20T14:43:31;8.37;;;7.70;;
15061;SDS011;7630;50.306;8.566;2023-08-20T14:47:33;7.30;;;5.35;;
15061;SDS011;7630;50.306;8.566;2023-08-20T14:51:34;6.67;;;6.17;;
15061;SDS011;7630;50.306;8.566;2023-08-20T14:55:37;8.37;;;5.57;;
15061;SDS011;7630;50.306;8.566;2023-08-20T14:59:38;6.25;;;5.33;;
15061;SDS011;7630;50.306;8.566;2023-08-20T15:03:39;5.60;;;5.10;;
15061;SDS011;7630;50.306;8.566;2023-08-20T15:07:40;6.37;;;5.53;;
15061;SDS011;7630;50.306;8.566;2023-08-20T15:11:42;5.53;;;4.97;;
15061;SDS011;7630;50.306;8.566;2023-08-20T15:15:43;5.55;;;5.12;;
15061;SDS011;7630;50.306;8.566;2023-08-20T15:19:44;5.53;;;5.03;;
15061;SDS011;7630;50.306;8.566;2023-08-20T15:23:45;6.10;;;5.40;;
15061;SDS011;7630;50.306;8.566;2023-08-20T15:27:46;9.63;;;6.55;;
15061;SDS011;7630;50.306;8.566;2023-08-20T15:31:48;6.70;;;6.10;;
15061;SDS011;7630;50.306;8.566;2023-08-20T15:35:51;6.37;;;5.77;;
15061;SDS011;7630;50.306;8.566;2023-08-20T15:39:52;5.23;;;4.83;;
15061;SDS011;7630;50.306;8.566;2023-08-20T15:43:53;5.10;;;4.60;;
15061;SDS011;7630;50.306;8.566;2023-08-20T15:47:54;5.80;;;5.30;;
15061;SDS011;7630;50.306;8.566;2023-08-20T15:51:55;5.80;;;5.20;;
15061;SDS011;7630;50.306;8.566;2023-08-20T15:55:56;4.70;;;4.40;;
15061;SDS011;7630;50.306;8.566;2023-08-20T15:59:57;5.73;;;5.17;;
15061;SDS011;7630;50.306;8.566;2023-08-20T16:03:58;5.30;;;4.73;;
15061;SDS011;7630;50.306;8.566;2023-08-20T16:08:00;7.87;;;4.40;;
15061;SDS011;7630;50.306;8.566;2023-08-20T16:12:01;6.80;;;5.30;;
15061;SDS011;7630;50.306;8.566;2023-08-20T16:16:03;5.30;;;4.80;;
15061;SDS011;7630;50.306;8.566;2023-08-20T16:20:06;6.27;;;4.73;;
15061;SDS011;7630;50.306;8.566;2023-08-20T16:24:08;6.03;;;5.27;;
15061;SDS011;7630;50.306;8.566;2023-08-20T16:28:11;7.03;;;6.33;;
15061;SDS011;7630;50.306;8.566;2023-08-20T16:36:33;7.00;;;5.50;;
15061;SDS011;7630;50.306;8.566;2023-08-20T16:40:34;12.90;;;6.70;;
15061;SDS011;7630;50.306;8.566;2023-08-20T16:44:35;9.70;;;5.13;;
15061;SDS011;7630;50.306;8.566;2023-08-20T16:48:37;7.90;;;5.27;;
15061;SDS011;7630;50.306;8.566;2023-08-20T16:52:38;5.50;;;5.00;;
15061;SDS011;7630;50.306;8.566;2023-08-20T16:56:39;6.63;;;6.13;;
15061;SDS011;7630;50.306;8.566;2023-08-20T17:00:40;7.90;;;5.33;;
15061;SDS011;7630;50.306;8.566;2023-08-20T17:04:42;6.07;;;5.33;;
15061;SDS011;7630;50.306;8.566;2023-08-20T17:08:43;6.70;;;5.13;;
15061;SDS011;7630;50.306;8.566;2023-08-20T17:12:44;6.03;;;5.47;;
15061;SDS011;7630;50.306;8.566;2023-08-20T17:16:47;6.73;;;5.77;;
15061;SDS011;7630;50.306;8.566;2023-08-20T17:20:49;14.73;;;13.63;;
15061;SDS011;7630;50.306;8.566;2023-08-20T17:24:53;9.67;;;6.57;;
15061;SDS011;7630;50.306;8.566;2023-08-20T17:28:54;30.30;;;23.93;;
15061;SDS011;7630;50.306;8.566;2023-08-20T17:32:55;6.70;;;6.17;;
15061;SDS011;7630;50.306;8.566;2023-08-20T17:36:56;5.60;;;5.10;;
15061;SDS011;7630;50.306;8.566;2023-08-20T17:40:57;8.93;;;5.27;;
15061;SDS011;7630;50.306;8.566;2023-08-20T17:44:59;7.23;;;5.70;;
15061;SDS011;7630;50.306;8.566;2023-08-20T17:49:00;5.63;;;5.10;;
15061;SDS011;7630;50.306;8.566;2023-08-20T17:53:02;5.57;;;5.07;;
15061;SDS011;7630;50.306;8.566;2023-08-20T17:57:06;6.40;;;5.90;;
15061;SDS011;7630;50.306;8.566;2023-08-20T18:01:10;6.00;;;4.80;;
15061;SDS011;7630;50.306;8.566;2023-08-20T18:05:11;7.57;;;6.23;;
15061;SDS011;7630;50.306;8.566;2023-08-20T18:09:12;6.17;;;5.53;;
15061;SDS011;7630;50.306;8.566;2023-08-20T18:13:13;5.17;;;4.87;;
15061;SDS011;7630;50.306;8.566;2023-08-20T18:17:15;6.40;;;5.83;;
15061;SDS011;7630;50.306;8.566;2023-08-20T18:21:16;6.43;;;5.83;;
15061;SDS011;7630;50.306;8.566;2023-08-20T18:25:17;6.17;;;5.57;;
15061;SDS011;7630;50.306;8.566;2023-08-20T18:29:18;14.20;;;6.33;;
15061;SDS011;7630;50.306;8.566;2023-08-20T18:33:20;6.10;;;5.37;;
15061;SDS011;7630;50.306;8.566;2023-08-20T18:37:22;6.67;;;6.03;;
15061;SDS011;7630;50.306;8.566;2023-08-20T18:41:23;10.07;;;7.67;;
15061;SDS011;7630;50.306;8.566;2023-08-20T18:45:24;8.60;;;7.80;;
15061;SDS011;7630;50.306;8.566;2023-08-20T18:49:25;8.80;;;8.10;;
15061;SDS011;7630;50.306;8.566;2023-08-20T18:53:26;7.80;;;7.00;;
15061;SDS011;7630;50.306;8.566;2023-08-20T18:57:27;7.78;;;6.75;;
15061;SDS011;7630;50.306;8.566;2023-08-20T19:01:29;6.73;;;6.23;;
15061;SDS011;7630;50.306;8.566;2023-08-20T19:05:30;7.13;;;6.20;;
15061;SDS011;7630;50.306;8.566;2023-08-20T19:09:31;10.03;;;7.57;;
15061;SDS011;7630;50.306;8.566;2023-08-20T19:13:32;10.43;;;7.20;;
15061;SDS011;7630;50.306;8.566;2023-08-20T19:17:33;12.10;;;9.03;;
15061;SDS011;7630;50.306;8.566;2023-08-20T19:21:35;9.87;;;7.90;;
15061;SDS011;7630;50.306;8.566;2023-08-20T19:25:36;7.93;;;7.10;;
15061;SDS011;7630;50.306;8.566;2023-08-20T19:29:37;10.80;;;7.67;;
15061;SDS011;7630;50.306;8.566;2023-08-20T19:33:38;8.93;;;8.03;;
15061;SDS011;7630;50.306;8.566;2023-08-20T19:37:39;8.87;;;7.67;;
15061;SDS011;7630;50.306;8.566;2023-08-20T19:41:40;8.00;;;7.23;;
15061;SDS011;7630;50.306;8.566;2023-08-20T19:45:41;13.80;;;7.77;;
15061;SDS011;7630;50.306;8.566;2023-08-20T19:49:43;12.60;;;8.43;;
15061;SDS011;7630;50.306;8.566;2023-08-20T19:53:44;8.60;;;7.77;;
15061;SDS011;7630;50.306;8.566;2023-08-20T19:57:45;10.77;;;8.13;;
15061;SDS011;7630;50.306;8.566;2023-08-20T20:01:47;9.80;;;8.47;;
15061;SDS011;7630;50.306;8.566;2023-08-20T20:05:49;10.37;;;9.33;;
15061;SDS011;7630;50.306;8.566;2023-08-20T20:09:50;18.37;;;8.73;;
15061;SDS011;7630;50.306;8.566;2023-08-20T20:13:51;10.87;;;8.43;;
15061;SDS011;7630;50.306;8.566;2023-08-20T20:17:52;9.87;;;7.83;;
15061;SDS011;7630;50.306;8.566;2023-08-20T20:21:53;9.23;;;7.93;;
15061;SDS011;7630;50.306;8.566;2023-08-20T20:25:54;7.73;;;7.03;;
15061;SDS011;7630;50.306;8.566;2023-08-20T20:29:56;8.43;;;7.73;;
15061;SDS011;7630;50.306;8.566;2023-08-20T20:33:57;11.17;;;7.07;;
15061;SDS011;7630;50.306;8.566;2023-08-20T20:37:58;10.97;;;8.17;;
15061;SDS011;7630;50.306;8.566;2023-08-20T20:41:59;8.43;;;7.67;;
15061;SDS011;7630;50.306;8.566;2023-08-20T20:46:01;8.07;;;7.37;;
15061;SDS011;7630;50.306;8.566;2023-08-20T20:50:03;13.63;;;8.33;;
15061;SDS011;7630;50.306;8.566;2023-08-20T20:54:04;11.07;;;8.10;;
15061;SDS011;7630;50.306;8.566;2023-08-20T20:58:06;8.03;;;7.33;;
15061;SDS011;7630;50.306;8.566;2023-08-20T21:02:07;12.77;;;8.40;;
15061;SDS011;7630;50.306;8.566;2023-08-20T21:06:09;11.43;;;9.40;;
15061;SDS011;7630;50.306;8.566;2023-08-20T21:10:10;8.83;;;8.13;;
15061;SDS011;7630;50.306;8.566;2023-08-20T21:14:12;8.27;;;7.43;;
15061;SDS011;7630;50.306;8.566;2023-08-20T21:18:13;8.67;;;7.97;;
15061;SDS011;7630;50.306;8.566;2023-08-20T21:22:15;9.60;;;8.70;;
15061;SDS011;7630;50.306;8.566;2023-08-20T21:26:16;14.10;;;7.90;;
15061;SDS011;7630;50.306;8.566;2023-08-20T21:30:17;8.93;;;7.43;;
15061;SDS011;7630;50.306;8.566;2023-08-20T21:34:18;9.33;;;8.43;;
15061;SDS011;7630;50.306;8.566;2023-08-20T21:38:20;9.60;;;8.77;;
15061;SDS011;7630;50.306;8.566;2023-08-20T21:42:21;10.80;;;7.97;;
15061;SDS011;7630;50.306;8.566;2023-08-20T21:46:22;9.80;;;7.63;;
15061;SDS011;7630;50.306;8.566;2023-08-20T21:50:23;11.80;;;9.50;;
15061;SDS011;7630;50.306;8.566;2023-08-20T21:54:25;10.73;;;9.20;;
15061;SDS011;7630;50.306;8.566;2023-08-20T21:58:26;10.80;;;9.80;;
15061;SDS011;7630;50.306;8.566;2023-08-20T22:02:27;9.43;;;8.53;;
15061;SDS011;7630;50.306;8.566;2023-08-20T22:06:28;11.63;;;10.63;;
15061;SDS011;7630;50.306;8.566;2023-08-20T22:10:29;13.50;;;9.07;;
15061;SDS011;7630;50.306;8.566;2023-08-20T22:14:30;11.10;;;10.30;;
15061;SDS011;7630;50.306;8.566;2023-08-20T22:18:31;10.53;;;9.53;;
15061;SDS011;7630;50.306;8.566;2023-08-20T22:22:33;10.23;;;9.43;;
15061;SDS011;7630;50.306;8.566;2023-08-20T22:26:34;10.33;;;9.40;;
15061;SDS011;7630;50.306;8.566;2023-08-20T22:30:35;10.37;;;9.27;;
15061;SDS011;7630;50.306;8.566;2023-08-20T22:34:39;12.73;;;9.13;;
15061;SDS011;7630;50.306;8.566;2023-08-20T22:38:40;11.63;;;10.47;;
15061;SDS011;7630;50.306;8.566;2023-08-20T22:42:41;11.00;;;10.10;;
15061;SDS011;7630;50.306;8.566;2023-08-20T22:46:42;12.83;;;9.93;;
15061;SDS011;7630;50.306;8.566;2023-08-20T22:50:43;10.57;;;9.47;;
15061;SDS011;7630;50.306;8.566;2023-08-20T22:54:44;10.90;;;9.83;;
15061;SDS011;7630;50.306;8.566;2023-08-20T22:58:45;10.03;;;9.10;;
15061;SDS011;7630;50.306;8.566;2023-08-20T23:02:46;10.43;;;9.50;;
15061;SDS011;7630;50.306;8.566;2023-08-20T23:06:48;11.80;;;10.73;;
15061;SDS011;7630;50.306;8.566;2023-08-20T23:10:49;10.30;;;9.37;;
15061;SDS011;7630;50.306;8.566;2023-08-20T23:14:54;12.73;;;11.50;;
15061;SDS011;7630;50.306;8.566;2023-08-20T23:18:53;11.77;;;10.57;;
15061;SDS011;7630;50.306;8.566;2023-08-20T23:22:54;12.37;;;11.37;;
15061;SDS011;7630;50.306;8.566;2023-08-20T23:26:56;15.57;;;14.30;;
15061;SDS011;7630;50.306;8.566;2023-08-20T23:30:57;15.67;;;14.20;;
15061;SDS011;7630;50.306;8.566;2023-08-20T23:34:58;13.60;;;12.60;;
15061;SDS011;7630;50.306;8.566;2023-08-20T23:38:59;15.03;;;13.70;;
15061;SDS011;7630;50.306;8.566;2023-08-20T23:43:00;15.27;;;13.90;;
15061;SDS011;7630;50.306;8.566;2023-08-20T23:47:02;13.47;;;12.43;;
15061;SDS011;7630;50.306;8.566;2023-08-20T23:51:03;14.63;;;13.33;;
15061;SDS011;7630;50.306;8.566;2023-08-20T23:55:05;17.50;;;16.13;;
15061;SDS011;7630;50.306;8.566;2023-08-20T23:59:06;18.30;;;16.40;;
